sensor_id;sensor_type;location;lat;lon;timestamp;pressure;altitude;pressure_sealevel;temperature;humidity
70343;BME280;57767;42.068;24.752;2023-05-29T00:00:37;98545.97;;;17.40;83.39
70343;BME280;57767;42.068;24.752;2023-05-29T00:01:38;98533.13;;;17.37;83.37
70343;BME280;57767;42.068;24.752;2023-05-29T00:02:42;98540.13;;;17.43;83.18
70343;BME280;57767;42.068;24.752;2023-05-29T00:03:45;98541.16;;;17.42;82.75
70343;BME280;57767;42.068;24.752;2023-05-29T00:04:48;98548.13;;;17.43;82.92
70343;BME280;57767;42.068;24.752;2023-05-29T00:05:49;98536.09;;;17.41;82.84
70343;BME280;57767;42.068;24.752;2023-05-29T00:06:51;98541.16;;;17.42;83.11
70343;BME280;57767;42.068;24.752;2023-05-29T00:07:53;98534.78;;;17.43;82.89
70343;BME280;57767;42.068;24.752;2023-05-29T00:08:55;98536.38;;;17.44;82.48
70343;BME280;57767;42.068;24.752;2023-05-29T00:09:57;98544.94;;;17.46;82.82
70343;BME280;57767;42.068;24.752;2023-05-29T00:10:59;98547.31;;;17.48;82.77
70343;BME280;57767;42.068;24.752;2023-05-29T00:12:01;98542.78;;;17.48;82.85
70343;BME280;57767;42.068;24.752;2023-05-29T00:13:04;98545.47;;;17.48;83.17
70343;BME280;57767;42.068;24.752;2023-05-29T00:14:08;98541.97;;;17.48;83.13
70343;BME280;57767;42.068;24.752;2023-05-29T00:15:14;98542.28;;;17.51;83.18
70343;BME280;57767;42.068;24.752;2023-05-29T00:16:16;98527.56;;;17.44;82.50
70343;BME280;57767;42.068;24.752;2023-05-29T00:17:19;98542.81;;;17.53;82.69
70343;BME280;57767;42.068;24.752;2023-05-29T00:18:22;98539.09;;;17.54;82.54
70343;BME280;57767;42.068;24.752;2023-05-29T00:19:24;98527.88;;;17.47;83.05
70343;BME280;57767;42.068;24.752;2023-05-29T00:20:26;98531.06;;;17.49;82.80
70343;BME280;57767;42.068;24.752;2023-05-29T00:21:29;98547.09;;;17.54;82.79
70343;BME280;57767;42.068;24.752;2023-05-29T00:22:30;98529.72;;;17.47;82.89
70343;BME280;57767;42.068;24.752;2023-05-29T00:23:32;98537.19;;;17.50;82.63
70343;BME280;57767;42.068;24.752;2023-05-29T00:24:34;98549.25;;;17.58;82.81
70343;BME280;57767;42.068;24.752;2023-05-29T00:25:36;98546.03;;;17.55;82.79
70343;BME280;57767;42.068;24.752;2023-05-29T00:26:38;98548.44;;;17.57;82.42
70343;BME280;57767;42.068;24.752;2023-05-29T00:27:39;98551.13;;;17.57;82.64
70343;BME280;57767;42.068;24.752;2023-05-29T00:28:41;98550.63;;;17.60;82.64
70343;BME280;57767;42.068;24.752;2023-05-29T00:29:45;98540.72;;;17.61;82.44
70343;BME280;57767;42.068;24.752;2023-05-29T00:30:47;98542.59;;;17.60;82.61
70343;BME280;57767;42.068;24.752;2023-05-29T00:31:49;98542.81;;;17.53;82.31
70343;BME280;57767;42.068;24.752;2023-05-29T00:32:51;98547.66;;;17.57;82.50
70343;BME280;57767;42.068;24.752;2023-05-29T00:33:56;98553.28;;;17.60;82.59
70343;BME280;57767;42.068;24.752;2023-05-29T00:34:58;98540.69;;;17.55;82.65
70343;BME280;57767;42.068;24.752;2023-05-29T00:36:00;98543.13;;;17.57;82.66
70343;BME280;57767;42.068;24.752;2023-05-29T00:37:01;98552.72;;;17.58;82.05
70343;BME280;57767;42.068;24.752;2023-05-29T00:38:04;98545.25;;;17.55;82.14
70343;BME280;57767;42.068;24.752;2023-05-29T00:39:06;98542.28;;;17.51;82.13
70343;BME280;57767;42.068;24.752;2023-05-29T00:40:08;98551.38;;;17.55;82.02
70343;BME280;57767;42.068;24.752;2023-05-29T00:41:14;98552.44;;;17.54;82.02
70343;BME280;57767;42.068;24.752;2023-05-29T00:42:17;98545.78;;;17.57;81.64
70343;BME280;57767;42.068;24.752;2023-05-29T00:43:19;98545.25;;;17.55;81.63
70343;BME280;57767;42.068;24.752;2023-05-29T00:44:21;98547.66;;;17.57;81.37
70343;BME280;57767;42.068;24.752;2023-05-29T00:45:23;98528.38;;;17.49;81.49
70343;BME280;57767;42.068;24.752;2023-05-29T00:46:25;98527.31;;;17.45;81.71
70343;BME280;57767;42.068;24.752;2023-05-29T00:47:28;98535.88;;;17.47;81.86
70343;BME280;57767;42.068;24.752;2023-05-29T00:48:30;98533.72;;;17.49;81.86
70343;BME280;57767;42.068;24.752;2023-05-29T00:49:33;98542.28;;;17.51;81.34
70343;BME280;57767;42.068;24.752;2023-05-29T00:50:36;98531.59;;;17.46;81.46
70343;BME280;57767;42.068;24.752;2023-05-29T00:51:38;98536.94;;;17.51;81.26
70343;BME280;57767;42.068;24.752;2023-05-29T00:52:45;98534.78;;;17.48;81.25
70343;BME280;57767;42.068;24.752;2023-05-29T00:53:48;98536.94;;;17.51;80.67
70343;BME280;57767;42.068;24.752;2023-05-29T00:54:50;98528.66;;;17.53;80.70
70343;BME280;57767;42.068;24.752;2023-05-29T00:55:53;98529.47;;;17.53;80.63
70343;BME280;57767;42.068;24.752;2023-05-29T00:56:57;98538.28;;;17.54;80.46
70343;BME280;57767;42.068;24.752;2023-05-29T00:57:59;98535.63;;;17.54;80.24
70343;BME280;57767;42.068;24.752;2023-05-29T00:59:01;98522.78;;;17.46;80.45
70343;BME280;57767;42.068;24.752;2023-05-29T01:00:05;98524.94;;;17.54;80.39
70343;BME280;57767;42.068;24.752;2023-05-29T01:01:09;98525.19;;;17.52;80.04
70343;BME280;57767;42.068;24.752;2023-05-29T01:02:14;98520.63;;;17.48;80.12
70343;BME280;57767;42.068;24.752;2023-05-29T01:03:18;98518.78;;;17.53;80.03
70343;BME280;57767;42.068;24.752;2023-05-29T01:04:21;98520.91;;;17.51;79.91
70343;BME280;57767;42.068;24.752;2023-05-29T01:05:25;98523.59;;;17.51;80.10
70343;BME280;57767;42.068;24.752;2023-05-29T01:06:27;98521.97;;;17.50;79.50
70343;BME280;57767;42.068;24.752;2023-05-29T01:07:29;98519.31;;;17.50;79.56
70343;BME280;57767;42.068;24.752;2023-05-29T01:08:30;98517.97;;;17.48;80.06
70343;BME280;57767;42.068;24.752;2023-05-29T01:09:32;98519.06;;;17.47;79.82
70343;BME280;57767;42.068;24.752;2023-05-29T01:10:35;98508.09;;;17.43;79.62
70343;BME280;57767;42.068;24.752;2023-05-29T01:12:49;98507.03;;;17.44;79.55
70343;BME280;57767;42.068;24.752;2023-05-29T01:13:53;98507.84;;;17.50;79.43
70343;BME280;57767;42.068;24.752;2023-05-29T01:15:18;98512.38;;;17.49;79.20
70343;BME280;57767;42.068;24.752;2023-05-29T01:16:29;98516.09;;;17.48;79.06
70343;BME280;57767;42.068;24.752;2023-05-29T01:19:18;98514.50;;;17.47;79.39
70343;BME280;57767;42.068;24.752;2023-05-29T01:20:27;98515.28;;;17.48;79.63
70343;BME280;57767;42.068;24.752;2023-05-29T01:22:09;98517.19;;;17.47;79.04
70343;BME280;57767;42.068;24.752;2023-05-29T01:23:46;98523.03;;;17.49;78.67
70343;BME280;57767;42.068;24.752;2023-05-29T01:27:30;98521.97;;;17.50;78.88
70343;BME280;57767;42.068;24.752;2023-05-29T01:28:38;98520.91;;;17.46;79.09
70343;BME280;57767;42.068;24.752;2023-05-29T01:29:43;98527.31;;;17.50;79.54
70343;BME280;57767;42.068;24.752;2023-05-29T01:30:45;98523.06;;;17.54;79.58
70343;BME280;57767;42.068;24.752;2023-05-29T01:31:47;98524.13;;;17.53;79.93
70343;BME280;57767;42.068;24.752;2023-05-29T01:32:50;98530.03;;;17.55;79.67
70343;BME280;57767;42.068;24.752;2023-05-29T01:33:57;98518.78;;;17.53;80.23
70343;BME280;57767;42.068;24.752;2023-05-29T01:34:59;98521.47;;;17.53;80.95
70343;BME280;57767;42.068;24.752;2023-05-29T01:36:01;98518.50;;;17.50;81.52
70343;BME280;57767;42.068;24.752;2023-05-29T01:37:03;98523.84;;;17.50;81.50
70343;BME280;57767;42.068;24.752;2023-05-29T01:38:05;98519.84;;;17.47;81.79
70343;BME280;57767;42.068;24.752;2023-05-29T01:39:07;98521.97;;;17.50;82.58
70343;BME280;57767;42.068;24.752;2023-05-29T01:40:10;98513.44;;;17.48;82.46
70343;BME280;57767;42.068;24.752;2023-05-29T01:41:11;98516.63;;;17.50;82.78
70343;BME280;57767;42.068;24.752;2023-05-29T01:42:14;98517.69;;;17.44;83.17
70343;BME280;57767;42.068;24.752;2023-05-29T01:43:16;98523.56;;;17.41;83.74
70343;BME280;57767;42.068;24.752;2023-05-29T01:44:18;98517.91;;;17.33;84.17
70343;BME280;57767;42.068;24.752;2023-05-29T01:45:20;98517.03;;;17.17;84.49
70343;BME280;57767;42.068;24.752;2023-05-29T01:46:23;98527.66;;;17.12;85.27
70343;BME280;57767;42.068;24.752;2023-05-29T01:47:27;98532.94;;;17.02;86.16
70343;BME280;57767;42.068;24.752;2023-05-29T01:48:29;98527.59;;;17.02;86.34
70343;BME280;57767;42.068;24.752;2023-05-29T01:49:32;98516.13;;;17.01;86.58
70343;BME280;57767;42.068;24.752;2023-05-29T01:50:35;98524.94;;;17.02;86.82
70343;BME280;57767;42.068;24.752;2023-05-29T01:51:38;98516.06;;;16.91;87.39
70343;BME280;57767;42.068;24.752;2023-05-29T01:52:39;98513.09;;;16.82;87.70
70343;BME280;57767;42.068;24.752;2023-05-29T01:53:42;98514.09;;;16.76;87.89
70343;BME280;57767;42.068;24.752;2023-05-29T01:54:45;98513.84;;;16.78;87.93
70343;BME280;57767;42.068;24.752;2023-05-29T01:55:47;98522.72;;;16.89;87.95
70343;BME280;57767;42.068;24.752;2023-05-29T01:56:50;98521.69;;;16.95;87.70
70343;BME280;57767;42.068;24.752;2023-05-29T01:57:53;98532.63;;;16.98;87.50
70343;BME280;57767;42.068;24.752;2023-05-29T01:58:57;98515.31;;;16.96;87.30
70343;BME280;57767;42.068;24.752;2023-05-29T01:59:58;98514.75;;;16.99;87.22
70343;BME280;57767;42.068;24.752;2023-05-29T02:01:05;98521.25;;;17.08;87.11
70343;BME280;57767;42.068;24.752;2023-05-29T02:02:08;98526.59;;;17.13;86.99
70343;BME280;57767;42.068;24.752;2023-05-29T02:03:10;98529.00;;;17.14;86.66
70343;BME280;57767;42.068;24.752;2023-05-29T02:04:14;98523.72;;;17.19;86.09
70343;BME280;57767;42.068;24.752;2023-05-29T02:05:16;98530.41;;;17.22;86.08
70343;BME280;57767;42.068;24.752;2023-05-29T02:06:19;98518.09;;;17.16;86.08
70343;BME280;57767;42.068;24.752;2023-05-29T02:07:21;98522.66;;;17.26;86.26
70343;BME280;57767;42.068;24.752;2023-05-29T02:08:23;98509.28;;;17.15;86.45
70343;BME280;57767;42.068;24.752;2023-05-29T02:09:25;98525.34;;;17.26;86.14
70343;BME280;57767;42.068;24.752;2023-05-29T02:10:27;98528.81;;;17.26;86.45
70343;BME280;57767;42.068;24.752;2023-05-29T02:11:29;98527.44;;;17.24;86.48
70343;BME280;57767;42.068;24.752;2023-05-29T02:12:31;98534.13;;;17.26;86.50
70343;BME280;57767;42.068;24.752;2023-05-29T02:13:33;98543.75;;;17.27;86.37
70343;BME280;57767;42.068;24.752;2023-05-29T02:14:35;98537.88;;;17.25;86.25
70343;BME280;57767;42.068;24.752;2023-05-29T02:15:36;98531.47;;;17.26;85.71
70343;BME280;57767;42.068;24.752;2023-05-29T02:16:38;98525.31;;;17.21;86.04
70343;BME280;57767;42.068;24.752;2023-05-29T02:17:42;98539.47;;;17.26;86.21
70343;BME280;57767;42.068;24.752;2023-05-29T02:18:46;98535.75;;;17.27;86.63
70343;BME280;57767;42.068;24.752;2023-05-29T02:19:48;98546.47;;;17.32;86.29
70343;BME280;57767;42.068;24.752;2023-05-29T02:20:50;98545.41;;;17.33;85.79
70343;BME280;57767;42.068;24.752;2023-05-29T02:21:53;98545.91;;;17.35;85.54
70343;BME280;57767;42.068;24.752;2023-05-29T02:22:56;98548.06;;;17.33;85.52
70343;BME280;57767;42.068;24.752;2023-05-29T02:23:58;98540.56;;;17.30;85.29
70343;BME280;57767;42.068;24.752;2023-05-29T02:24:59;98556.91;;;17.39;84.85
70343;BME280;57767;42.068;24.752;2023-05-29T02:26:01;98550.50;;;17.40;85.23
70343;BME280;57767;42.068;24.752;2023-05-29T02:27:03;98547.28;;;17.38;85.20
70343;BME280;57767;42.068;24.752;2023-05-29T02:28:05;98538.47;;;17.37;86.08
70343;BME280;57767;42.068;24.752;2023-05-29T02:29:07;98538.72;;;17.36;86.18
70343;BME280;57767;42.068;24.752;2023-05-29T02:30:10;98538.47;;;17.32;86.18
70343;BME280;57767;42.068;24.752;2023-05-29T02:31:12;98540.06;;;17.38;86.28
70343;BME280;57767;42.068;24.752;2023-05-29T02:32:13;98540.34;;;17.37;86.35
70343;BME280;57767;42.068;24.752;2023-05-29T02:33:15;98547.28;;;17.38;86.74
70343;BME280;57767;42.068;24.752;2023-05-29T02:34:17;98534.75;;;17.38;86.46
70343;BME280;57767;42.068;24.752;2023-05-29T02:35:19;98535.28;;;17.40;86.36
70343;BME280;57767;42.068;24.752;2023-05-29T02:36:24;98548.13;;;17.43;86.20
70343;BME280;57767;42.068;24.752;2023-05-29T02:37:26;98537.16;;;17.40;86.02
70343;BME280;57767;42.068;24.752;2023-05-29T02:38:27;98543.06;;;17.47;85.78
70343;BME280;57767;42.068;24.752;2023-05-29T02:39:29;98540.13;;;17.48;85.98
70343;BME280;57767;42.068;24.752;2023-05-29T02:40:31;98531.03;;;17.44;85.64
70343;BME280;57767;42.068;24.752;2023-05-29T02:41:33;98535.88;;;17.47;85.73
70343;BME280;57767;42.068;24.752;2023-05-29T02:42:35;98541.47;;;17.51;85.62
70343;BME280;57767;42.068;24.752;2023-05-29T02:43:37;98544.13;;;17.51;85.39
70343;BME280;57767;42.068;24.752;2023-05-29T02:44:38;98530.25;;;17.44;85.47
70343;BME280;57767;42.068;24.752;2023-05-29T02:45:40;98539.59;;;17.51;85.36
70343;BME280;57767;42.068;24.752;2023-05-29T02:46:42;98546.28;;;17.54;84.98
70343;BME280;57767;42.068;24.752;2023-05-29T02:47:44;98547.09;;;17.54;84.97
70343;BME280;57767;42.068;24.752;2023-05-29T02:48:46;98541.47;;;17.51;84.96
70343;BME280;57767;42.068;24.752;2023-05-29T02:49:48;98526.22;;;17.41;84.83
70343;BME280;57767;42.068;24.752;2023-05-29T02:50:50;98543.09;;;17.52;84.53
70343;BME280;57767;42.068;24.752;2023-05-29T02:51:51;98549.22;;;17.52;84.37
70343;BME280;57767;42.068;24.752;2023-05-29T02:52:57;98552.44;;;17.54;84.30
70343;BME280;57767;42.068;24.752;2023-05-29T02:53:59;98556.47;;;17.57;84.32
70343;BME280;57767;42.068;24.752;2023-05-29T02:55:01;98557.00;;;17.59;84.40
70343;BME280;57767;42.068;24.752;2023-05-29T02:56:03;98552.19;;;17.61;84.07
70343;BME280;57767;42.068;24.752;2023-05-29T02:57:05;98549.81;;;17.60;83.84
70343;BME280;57767;42.068;24.752;2023-05-29T02:58:07;98542.84;;;17.59;83.80
70343;BME280;57767;42.068;24.752;2023-05-29T02:59:09;98549.81;;;17.60;84.11
70343;BME280;57767;42.068;24.752;2023-05-29T03:00:11;98551.66;;;17.59;84.42
70343;BME280;57767;42.068;24.752;2023-05-29T03:01:13;98531.31;;;17.48;84.34
70343;BME280;57767;42.068;24.752;2023-05-29T03:02:15;98548.72;;;17.55;84.36
70343;BME280;57767;42.068;24.752;2023-05-29T03:03:16;98544.72;;;17.58;84.51
70343;BME280;57767;42.068;24.752;2023-05-29T03:04:18;98555.94;;;17.60;84.71
70343;BME280;57767;42.068;24.752;2023-05-29T03:05:21;98536.44;;;17.54;84.75
70343;BME280;57767;42.068;24.752;2023-05-29T03:06:22;98554.84;;;17.61;84.65
70343;BME280;57767;42.068;24.752;2023-05-29T03:07:24;98565.81;;;17.60;84.41
70343;BME280;57767;42.068;24.752;2023-05-29T03:08:26;98560.19;;;17.61;84.21
70343;BME280;57767;42.068;24.752;2023-05-29T03:09:29;98553.28;;;17.60;84.20
70343;BME280;57767;42.068;24.752;2023-05-29T03:10:31;98549.81;;;17.60;84.37
70343;BME280;57767;42.068;24.752;2023-05-29T03:11:33;98549.00;;;17.59;84.68
70343;BME280;57767;42.068;24.752;2023-05-29T03:12:38;98548.19;;;17.59;84.19
70343;BME280;57767;42.068;24.752;2023-05-29T03:13:41;98548.19;;;17.59;84.51
70343;BME280;57767;42.068;24.752;2023-05-29T03:14:43;98550.56;;;17.55;84.65
70343;BME280;57767;42.068;24.752;2023-05-29T03:15:45;98550.88;;;17.59;84.49
70343;BME280;57767;42.068;24.752;2023-05-29T03:16:48;98561.28;;;17.60;84.47
70343;BME280;57767;42.068;24.752;2023-05-29T03:17:50;98550.31;;;17.57;84.25
70343;BME280;57767;42.068;24.752;2023-05-29T03:18:52;98557.03;;;17.64;85.11
70343;BME280;57767;42.068;24.752;2023-05-29T03:19:54;98556.22;;;17.59;85.34
70343;BME280;57767;42.068;24.752;2023-05-29T03:20:56;98556.13;;;17.48;85.33
70343;BME280;57767;42.068;24.752;2023-05-29T03:21:59;98541.94;;;17.38;85.70
70343;BME280;57767;42.068;24.752;2023-05-29T03:23:01;98567.66;;;17.54;85.85
70343;BME280;57767;42.068;24.752;2023-05-29T03:24:03;98556.41;;;17.47;86.21
70343;BME280;57767;42.068;24.752;2023-05-29T03:25:05;98568.69;;;17.48;86.21
70343;BME280;57767;42.068;24.752;2023-05-29T03:26:07;98558.25;;;17.41;86.28
70343;BME280;57767;42.068;24.752;2023-05-29T03:27:09;98558.00;;;17.43;86.04
70343;BME280;57767;42.068;24.752;2023-05-29T03:28:11;98561.47;;;17.43;85.99
70343;BME280;57767;42.068;24.752;2023-05-29T03:29:12;98558.53;;;17.45;86.00
70343;BME280;57767;42.068;24.752;2023-05-29T03:30:14;98566.81;;;17.48;86.06
70343;BME280;57767;42.068;24.752;2023-05-29T03:31:16;98553.75;;;17.47;85.54
70343;BME280;57767;42.068;24.752;2023-05-29T03:32:18;98568.47;;;17.54;85.46
70343;BME280;57767;42.068;24.752;2023-05-29T03:33:20;98569.81;;;17.57;85.67
70343;BME280;57767;42.068;24.752;2023-05-29T03:34:22;98547.63;;;17.51;85.54
70343;BME280;57767;42.068;24.752;2023-05-29T03:35:23;98556.97;;;17.54;85.71
70343;BME280;57767;42.068;24.752;2023-05-29T03:36:26;98563.41;;;17.58;85.86
70343;BME280;57767;42.068;24.752;2023-05-29T03:37:28;98563.66;;;17.62;86.06
70343;BME280;57767;42.068;24.752;2023-05-29T03:38:30;98559.94;;;17.58;86.30
70343;BME280;57767;42.068;24.752;2023-05-29T03:39:31;98565.06;;;17.64;85.99
70343;BME280;57767;42.068;24.752;2023-05-29T03:40:33;98562.38;;;17.64;85.89
70343;BME280;57767;42.068;24.752;2023-05-29T03:41:35;98558.91;;;17.64;85.84
70343;BME280;57767;42.068;24.752;2023-05-29T03:42:37;98568.56;;;17.70;85.59
70343;BME280;57767;42.068;24.752;2023-05-29T03:43:39;98566.44;;;17.72;85.29
70343;BME280;57767;42.068;24.752;2023-05-29T03:44:41;98555.47;;;17.68;84.43
70343;BME280;57767;42.068;24.752;2023-05-29T03:45:43;98568.31;;;17.76;84.39
70343;BME280;57767;42.068;24.752;2023-05-29T03:46:45;98557.09;;;17.74;84.39
70343;BME280;57767;42.068;24.752;2023-05-29T03:47:47;98576.63;;;17.80;84.16
70343;BME280;57767;42.068;24.752;2023-05-29T03:48:49;98565.41;;;17.83;84.29
70343;BME280;57767;42.068;24.752;2023-05-29T03:49:50;98559.53;;;17.81;84.46
70343;BME280;57767;42.068;24.752;2023-05-29T03:50:52;98558.97;;;17.79;84.45
70343;BME280;57767;42.068;24.752;2023-05-29T03:51:54;98554.69;;;17.73;84.25
70343;BME280;57767;42.068;24.752;2023-05-29T03:52:56;98562.44;;;17.79;84.65
70343;BME280;57767;42.068;24.752;2023-05-29T03:53:58;98559.78;;;17.79;84.96
70343;BME280;57767;42.068;24.752;2023-05-29T03:55:00;98571.81;;;17.82;85.04
70343;BME280;57767;42.068;24.752;2023-05-29T03:56:01;98569.16;;;17.82;85.16
70343;BME280;57767;42.068;24.752;2023-05-29T03:57:03;98569.94;;;17.82;84.80
70343;BME280;57767;42.068;24.752;2023-05-29T03:58:05;98569.94;;;17.82;84.50
70343;BME280;57767;42.068;24.752;2023-05-29T03:59:07;98567.53;;;17.81;83.72
70343;BME280;57767;42.068;24.752;2023-05-29T04:00:10;98567.53;;;17.86;84.20
70343;BME280;57767;42.068;24.752;2023-05-29T04:01:13;98572.88;;;17.86;84.58
70343;BME280;57767;42.068;24.752;2023-05-29T04:02:15;98571.81;;;17.87;84.66
70343;BME280;57767;42.068;24.752;2023-05-29T04:03:20;98577.97;;;17.87;84.44
70343;BME280;57767;42.068;24.752;2023-05-29T04:04:23;98580.38;;;17.89;84.91
70343;BME280;57767;42.068;24.752;2023-05-29T04:05:25;98577.69;;;17.89;85.15
70343;BME280;57767;42.068;24.752;2023-05-29T04:06:27;98579.84;;;17.92;85.16
70343;BME280;57767;42.068;24.752;2023-05-29T04:07:29;98571.31;;;17.90;85.03
70343;BME280;57767;42.068;24.752;2023-05-29T04:08:31;98580.16;;;17.96;84.87
70343;BME280;57767;42.068;24.752;2023-05-29T04:09:33;98576.66;;;17.95;84.70
70343;BME280;57767;42.068;24.752;2023-05-29T04:10:35;98587.91;;;17.97;84.20
70343;BME280;57767;42.068;24.752;2023-05-29T04:11:38;98577.22;;;17.97;83.55
70343;BME280;57767;42.068;24.752;2023-05-29T04:12:41;98583.06;;;17.99;83.50
70343;BME280;57767;42.068;24.752;2023-05-29T04:13:42;98585.22;;;18.02;83.40
70343;BME280;57767;42.068;24.752;2023-05-29T04:14:44;98586.84;;;18.03;83.77
70343;BME280;57767;42.068;24.752;2023-05-29T04:15:46;98590.06;;;18.05;84.07
70343;BME280;57767;42.068;24.752;2023-05-29T04:16:48;98568.66;;;17.95;84.18
70343;BME280;57767;42.068;24.752;2023-05-29T04:17:50;98588.72;;;18.08;84.31
70343;BME280;57767;42.068;24.752;2023-05-29T04:18:52;98587.66;;;18.09;84.15
70343;BME280;57767;42.068;24.752;2023-05-29T04:19:54;98585.50;;;18.06;84.58
70343;BME280;57767;42.068;24.752;2023-05-29T04:20:56;98583.94;;;18.10;84.43
70343;BME280;57767;42.068;24.752;2023-05-29T04:21:58;98579.91;;;18.07;84.22
70343;BME280;57767;42.068;24.752;2023-05-29T04:23:00;98593.81;;;18.14;84.26
70343;BME280;57767;42.068;24.752;2023-05-29T04:24:02;98588.47;;;18.14;84.54
70343;BME280;57767;42.068;24.752;2023-05-29T04:25:04;98597.84;;;18.17;84.21
70343;BME280;57767;42.068;24.752;2023-05-29T04:26:06;98597.84;;;18.17;83.95
70343;BME280;57767;42.068;24.752;2023-05-29T04:27:08;98583.66;;;18.11;83.95
70343;BME280;57767;42.068;24.752;2023-05-29T04:28:14;98581.25;;;18.15;83.97
70343;BME280;57767;42.068;24.752;2023-05-29T04:29:17;98589.56;;;18.18;83.74
70343;BME280;57767;42.068;24.752;2023-05-29T04:30:18;98590.38;;;18.19;83.74
70343;BME280;57767;42.068;24.752;2023-05-29T04:31:20;98582.91;;;18.21;84.09
70343;BME280;57767;42.068;24.752;2023-05-29T04:32:24;98600.28;;;18.29;83.28
70343;BME280;57767;42.068;24.752;2023-05-29T04:33:26;98596.53;;;18.30;83.18
70343;BME280;57767;42.068;24.752;2023-05-29T04:34:29;98596.53;;;18.30;82.90
70343;BME280;57767;42.068;24.752;2023-05-29T04:35:34;98589.28;;;18.25;83.06
70343;BME280;57767;42.068;24.752;2023-05-29T04:36:37;98584.22;;;18.18;82.88
70343;BME280;57767;42.068;24.752;2023-05-29T04:37:40;98595.19;;;18.27;82.90
70343;BME280;57767;42.068;24.752;2023-05-29T04:38:42;98603.50;;;18.31;82.86
70343;BME280;57767;42.068;24.752;2023-05-29T04:39:48;98597.84;;;18.27;83.35
70343;BME280;57767;42.068;24.752;2023-05-29T04:40:53;98601.84;;;18.24;83.50
70343;BME280;57767;42.068;24.752;2023-05-29T04:41:59;98609.34;;;18.27;83.68
70343;BME280;57767;42.068;24.752;2023-05-29T04:43:02;98614.69;;;18.27;83.61
70343;BME280;57767;42.068;24.752;2023-05-29T04:44:06;98615.25;;;18.30;83.72
70343;BME280;57767;42.068;24.752;2023-05-29T04:45:10;98617.63;;;18.26;83.71
70343;BME280;57767;42.068;24.752;2023-05-29T04:46:14;98604.53;;;18.24;83.97
70343;BME280;57767;42.068;24.752;2023-05-29T04:47:17;98621.66;;;18.29;83.85
70343;BME280;57767;42.068;24.752;2023-05-29T04:48:18;98614.97;;;18.21;84.21
70343;BME280;57767;42.068;24.752;2023-05-29T04:49:20;98616.84;;;18.20;84.38
70343;BME280;57767;42.068;24.752;2023-05-29T04:50:23;98616.81;;;18.15;84.48
70343;BME280;57767;42.068;24.752;2023-05-29T04:51:25;98620.53;;;18.14;84.57
70343;BME280;57767;42.068;24.752;2023-05-29T04:52:29;98609.03;;;18.09;84.85
70343;BME280;57767;42.068;24.752;2023-05-29T04:53:32;98615.19;;;18.09;85.05
70343;BME280;57767;42.068;24.752;2023-05-29T04:54:34;98605.53;;;18.03;85.15
70343;BME280;57767;42.068;24.752;2023-05-29T04:55:37;98620.00;;;18.07;84.78
70343;BME280;57767;42.068;24.752;2023-05-29T04:56:39;98622.41;;;18.09;84.17
70343;BME280;57767;42.068;24.752;2023-05-29T04:57:44;98614.66;;;18.07;84.56
70343;BME280;57767;42.068;24.752;2023-05-29T04:58:46;98625.88;;;18.14;85.12
70343;BME280;57767;42.068;24.752;2023-05-29T04:59:47;98627.22;;;18.17;85.64
70343;BME280;57767;42.068;24.752;2023-05-29T05:00:49;98622.72;;;18.22;86.32
70343;BME280;57767;42.068;24.752;2023-05-29T05:01:51;98623.78;;;18.21;86.54
70343;BME280;57767;42.068;24.752;2023-05-29T05:02:53;98631.25;;;18.24;86.59
70343;BME280;57767;42.068;24.752;2023-05-29T05:03:55;98629.13;;;18.26;86.05
70343;BME280;57767;42.068;24.752;2023-05-29T05:04:57;98629.94;;;18.27;85.51
70343;BME280;57767;42.068;24.752;2023-05-29T05:06:00;98639.06;;;18.36;85.21
70343;BME280;57767;42.068;24.752;2023-05-29T05:07:05;98633.44;;;18.38;85.20
70343;BME280;57767;42.068;24.752;2023-05-29T05:08:07;98637.72;;;18.39;85.15
70343;BME280;57767;42.068;24.752;2023-05-29T05:09:08;98640.66;;;18.42;85.12
70343;BME280;57767;42.068;24.752;2023-05-29T05:10:11;98633.19;;;18.44;84.99
70343;BME280;57767;42.068;24.752;2023-05-29T05:11:14;98631.31;;;18.45;85.01
70343;BME280;57767;42.068;24.752;2023-05-29T05:12:16;98633.72;;;18.41;84.08
70343;BME280;57767;42.068;24.752;2023-05-29T05:13:17;98645.25;;;18.47;83.52
70343;BME280;57767;42.068;24.752;2023-05-29T05:14:22;98640.94;;;18.51;84.00
70343;BME280;57767;42.068;24.752;2023-05-29T05:15:24;98633.47;;;18.48;84.16
70343;BME280;57767;42.068;24.752;2023-05-29T05:16:26;98637.47;;;18.50;84.24
70343;BME280;57767;42.068;24.752;2023-05-29T05:17:28;98640.44;;;18.54;84.32
70343;BME280;57767;42.068;24.752;2023-05-29T05:18:29;98643.91;;;18.54;84.26
70343;BME280;57767;42.068;24.752;2023-05-29T05:19:31;98652.25;;;18.58;84.14
70343;BME280;57767;42.068;24.752;2023-05-29T05:20:33;98648.50;;;18.59;84.21
70343;BME280;57767;42.068;24.752;2023-05-29T05:21:37;98650.91;;;18.60;83.88
70343;BME280;57767;42.068;24.752;2023-05-29T05:22:39;98643.16;;;18.59;84.10
70343;BME280;57767;42.068;24.752;2023-05-29T05:23:40;98651.16;;;18.64;84.25
70343;BME280;57767;42.068;24.752;2023-05-29T05:24:58;98650.66;;;18.67;84.02
70343;BME280;57767;42.068;24.752;2023-05-29T05:26:01;98649.03;;;18.66;83.67
70343;BME280;57767;42.068;24.752;2023-05-29T05:27:04;98649.56;;;18.68;83.48
70343;BME280;57767;42.068;24.752;2023-05-29T05:28:08;98640.50;;;18.69;83.54
70343;BME280;57767;42.068;24.752;2023-05-29T05:29:10;98638.34;;;18.71;82.56
70343;BME280;57767;42.068;24.752;2023-05-29T05:30:12;98645.84;;;18.79;82.37
70343;BME280;57767;42.068;24.752;2023-05-29T05:31:14;98645.84;;;18.79;81.78
70343;BME280;57767;42.068;24.752;2023-05-29T05:32:16;98644.25;;;18.78;81.63
70343;BME280;57767;42.068;24.752;2023-05-29T05:33:18;98644.22;;;18.63;82.04
70343;BME280;57767;42.068;24.752;2023-05-29T05:34:20;98639.63;;;18.53;82.43